Map

Track Data

SID SEASON NUMBER BASIN SUBBASIN NAME ISO_TIME NATURE LAT LON WMO_WIND WMO_PRES WMO_AGENCY TRACK_TYPE DIST2LAND LANDFALL IFLAG USA_AGENCY USA_ATCF_ID USA_LAT USA_LON USA_RECORD USA_STATUS USA_WIND USA_PRES USA_SSHS USA_R34_NE USA_R34_SE USA_R34_SW USA_R34_NW USA_R50_NE USA_R50_SE USA_R50_SW USA_R50_NW USA_R64_NE USA_R64_SE USA_R64_SW USA_R64_NW USA_POCI USA_ROCI USA_RMW USA_EYE TOKYO_LAT TOKYO_LON TOKYO_GRADE TOKYO_WIND TOKYO_PRES TOKYO_R50_DIR TOKYO_R50_LONG TOKYO_R50_SHORT TOKYO_R30_DIR TOKYO_R30_LONG TOKYO_R30_SHORT TOKYO_LAND CMA_LAT CMA_LON CMA_CAT CMA_WIND CMA_PRES HKO_LAT HKO_LON HKO_CAT HKO_WIND HKO_PRES NEWDELHI_LAT NEWDELHI_LON NEWDELHI_GRADE NEWDELHI_WIND NEWDELHI_PRES NEWDELHI_CI NEWDELHI_DP NEWDELHI_POCI REUNION_LAT REUNION_LON REUNION_TYPE REUNION_WIND REUNION_PRES REUNION_TNUM REUNION_CI REUNION_RMW REUNION_R34_NE REUNION_R34_SE REUNION_R34_SW REUNION_R34_NW REUNION_R50_NE REUNION_R50_SE REUNION_R50_SW REUNION_R50_NW REUNION_R64_NE REUNION_R64_SE REUNION_R64_SW REUNION_R64_NW BOM_LAT BOM_LON BOM_TYPE BOM_WIND BOM_PRES BOM_TNUM BOM_CI BOM_RMW BOM_R34_NE BOM_R34_SE BOM_R34_SW BOM_R34_NW BOM_R50_NE BOM_R50_SE BOM_R50_SW BOM_R50_NW BOM_R64_NE BOM_R64_SE BOM_R64_SW BOM_R64_NW BOM_ROCI BOM_POCI BOM_EYE BOM_POS_METHOD BOM_PRES_METHOD NADI_LAT NADI_LON NADI_CAT NADI_WIND NADI_PRES WELLINGTON_LAT WELLINGTON_LON WELLINGTON_WIND WELLINGTON_PRES DS824_LAT DS824_LON DS824_STAGE DS824_WIND DS824_PRES TD9636_LAT TD9636_LON TD9636_STAGE TD9636_WIND TD9636_PRES TD9635_LAT TD9635_LON TD9635_WIND TD9635_PRES TD9635_ROCI NEUMANN_LAT NEUMANN_LON NEUMANN_CLASS NEUMANN_WIND NEUMANN_PRES MLC_LAT MLC_LON MLC_CLASS MLC_WIND MLC_PRES USA_GUST BOM_GUST BOM_GUST_PER REUNION_GUST REUNION_GUST_PER USA_SEAHGT USA_SEARAD_NE USA_SEARAD_SE USA_SEARAD_SW USA_SEARAD_NW STORM_SPEED STORM_DIR
1935053S14156 1935 11 SP EA NOT_NAMED 1935-02-21 12:00:00 NR -13.8000 156.000 main 609 609 __________O___ -1 -13.8000 156.000 7 2 255
1935053S14156 1935 11 SP EA NOT_NAMED 1935-02-21 15:00:00 NR -13.8263 155.889 main 617 617 __________P___ -1 -13.8263 155.889 7 2 258
1935053S14156 1935 11 SP EA NOT_NAMED 1935-02-21 18:00:00 NR -13.8522 155.753 main 632 632 __________P___ -1 -13.8522 155.753 7 3 261
1935053S14156 1935 11 SP EA NOT_NAMED 1935-02-21 21:00:00 NR -13.8769 155.565 main 640 621 __________P___ -1 -13.8769 155.565 7 4 264
1935053S14156 1935 11 SP EA NOT_NAMED 1935-02-22 00:00:00 NR -13.9000 155.300 main 621 595 __________O___ -1 -13.9000 155.300 7 6 266
1935053S14156 1935 11 SP EA NOT_NAMED 1935-02-22 03:00:00 NR -13.9212 154.943 main 587 554 __________P___ -1 -13.9212 154.943 7 8 267
1935053S14156 1935 11 SP EA NOT_NAMED 1935-02-22 06:00:00 NR -13.9429 154.517 main 554 530 __________P___ -1 -13.9429 154.517 7 9 267
1935053S14156 1935 11 SP EA NOT_NAMED 1935-02-22 09:00:00 NR -13.9681 154.058 main 530 494 __________P___ -1 -13.9681 154.058 7 9 266
1935053S14156 1935 11 SP EA NOT_NAMED 1935-02-22 12:00:00 NR -14.0000 153.600 main 494 467 __________O___ -1 -14.0000 153.600 7 9 265
1935053S14156 1935 11 SP EA NOT_NAMED 1935-02-22 15:00:00 NR -14.0427 153.177 main 467 453 __________P___ -1 -14.0427 153.177 7 8 264
1935053S14156 1935 11 SP EA NOT_NAMED 1935-02-22 18:00:00 NR -14.0924 152.763 main 453 433 __________P___ -1 -14.0924 152.763 7 8 263
1935053S14156 1935 11 SP EA NOT_NAMED 1935-02-22 21:00:00 NR -14.1459 152.367 main 433 427 __________P___ -1 -14.1459 152.367 7 7 262
1935053S14156 1935 11 SP EA NOT_NAMED 1935-02-23 00:00:00 NR -14.2000 152.000 main 427 416 __________O___ -1 -14.2000 152.000 7 7 262
1935053S14156 1935 11 SP EA NOT_NAMED 1935-02-23 03:00:00 NR -14.2414 151.683 main 416 413 __________P___ -1 -14.2414 151.683 7 6 262
1935053S14156 1935 11 SP EA NOT_NAMED 1935-02-23 06:00:00 NR -14.2844 151.392 main 417 410 __________P___ -1 -14.2844 151.392 7 6 261
1935053S14156 1935 11 SP EA NOT_NAMED 1935-02-23 09:00:00 NR -14.3352 151.105 main 410 408 __________P___ -1 -14.3352 151.105 7 6 259
1935053S14156 1935 11 SP EA NOT_NAMED 1935-02-23 12:00:00 NR -14.4000 150.800 main 416 414 __________O___ -1 -14.4000 150.800 7 7 257
1935053S14156 1935 11 SP EA NOT_NAMED 1935-02-23 15:00:00 NR -14.4899 150.418 main 425 425 __________P___ -1 -14.4899 150.418 7 8 256
1935053S14156 1935 11 SP EA NOT_NAMED 1935-02-23 18:00:00 NR -14.5929 150.020 main 437 437 __________P___ -1 -14.5929 150.020 7 8 255
1935053S14156 1935 11 SP EA NOT_NAMED 1935-02-23 21:00:00 NR -14.6993 149.637 main 452 422 __________P___ -1 -14.6993 149.637 7 7 253
1935053S14156 1935 11 SP EA NOT_NAMED 1935-02-24 00:00:00 NR -14.8000 149.300 main 422 399 __________O___ -1 -14.8000 149.300 7 6 253
1935053S14156 1935 11 SP EA NOT_NAMED 1935-02-24 03:00:00 NR -14.8738 149.041 main 389 367 __________P___ -1 -14.8738 149.041 7 5 253
1935053S14156 1935 11 SP EA NOT_NAMED 1935-02-24 06:00:00 NR -14.9421 148.832 main 367 355 __________P___ -1 -14.9421 148.832 7 4 249
1935053S14156 1935 11 SP EA NOT_NAMED 1935-02-24 09:00:00 NR -15.0145 148.657 main 355 333 __________P___ -1 -15.0145 148.657 7 4 244
1935053S14156 1935 11 SP EA NOT_NAMED 1935-02-24 12:00:00 NR -15.1000 148.500 main 333 311 __________O___ -1 -15.1000 148.500 7 4 238
1935053S14156 1935 11 SP EA NOT_NAMED 1935-02-24 15:00:00 NR -15.2228 148.315 main 311 299 __________P___ -1 -15.2228 148.315 7 4 233
1935053S14156 1935 11 SP EA NOT_NAMED 1935-02-24 18:00:00 NR -15.3575 148.148 main 289 275 __________P___ -1 -15.3575 148.148 7 4 228
1935053S14156 1935 11 SP EA NOT_NAMED 1935-02-24 21:00:00 NR -15.4884 148.006 main 275 262 __________P___ -1 -15.4884 148.006 7 3 225
1935053S14156 1935 11 SP EA NOT_NAMED 1935-02-25 00:00:00 NR -15.6000 147.900 main 262 249 __________O___ -1 -15.6000 147.900 7 2 220
1935053S14156 1935 11 SP EA NOT_NAMED 1935-02-25 03:00:00 NR -15.6715 147.843 main 249 249 __________P___ -1 -15.6715 147.843 7 1 214
1935053S14156 1935 11 SP EA NOT_NAMED 1935-02-25 06:00:00 NR -15.7224 147.820 main 249 243 __________P___ -1 -15.7224 147.820 7 1 201
1935053S14156 1935 11 SP EA NOT_NAMED 1935-02-25 09:00:00 NR -15.7621 147.812 main 243 243 __________P___ -1 -15.7621 147.812 7 1 191
1935053S14156 1935 11 SP EA NOT_NAMED 1935-02-25 12:00:00 NR -15.8000 147.800 main 243 243 __________O___ -1 -15.8000 147.800 7 1 213
1935053S14156 1935 11 SP EA NOT_NAMED 1935-02-25 15:00:00 NR -15.8500 147.753 main 237 228 __________P___ -1 -15.8500 147.753 7 1 223
1935053S14156 1935 11 SP EA NOT_NAMED 1935-02-25 18:00:00 NR -15.9000 147.700 main 228 219 __________P___ -1 -15.9000 147.700 7 1 225
1935053S14156 1935 11 SP EA NOT_NAMED 1935-02-25 21:00:00 NR -15.9500 147.647 main 213 213 __________P___ -1 -15.9500 147.647 7 1 223
1935053S14156 1935 11 SP EA NOT_NAMED 1935-02-26 00:00:00 NR -16.0000 147.600 main 213 213 __________O___ -1 -16.0000 147.600 7 1 216
1935053S14156 1935 11 SP EA NOT_NAMED 1935-02-26 03:00:00 NR -16.0459 147.572 main 213 207 __________P___ -1 -16.0459 147.572 7 1 197
1935053S14156 1935 11 SP EA NOT_NAMED 1935-02-26 06:00:00 NR -16.0925 147.550 main 207 198 __________P___ -1 -16.0925 147.550 7 1 202
1935053S14156 1935 11 SP EA NOT_NAMED 1935-02-26 09:00:00 NR -16.1428 147.528 main 198 192 __________P___ -1 -16.1428 147.528 7 1 196
1935053S14156 1935 11 SP EA NOT_NAMED 1935-02-26 12:00:00 NR -16.2000 147.500 main 192 187 __________O___ -1 -16.2000 147.500 7 1 210
1935053S14156 1935 11 SP EA NOT_NAMED 1935-02-26 15:00:00 NR -16.2663 147.461 main 187 178 __________P___ -1 -16.2663 147.461 7 2 213
1935053S14156 1935 11 SP EA NOT_NAMED 1935-02-26 18:00:00 NR -16.3400 147.413 main 178 173 __________P___ -1 -16.3400 147.413 7 2 213
1935053S14156 1935 11 SP EA NOT_NAMED 1935-02-26 21:00:00 NR -16.4188 147.358 main 173 159 __________P___ -1 -16.4188 147.358 7 2 213
1935053S14156 1935 11 SP EA NOT_NAMED 1935-02-27 00:00:00 NR -16.5000 147.300 main 159 __________O___ -1 -16.5000 147.300 7 2 213

Digital Typhoon Data and Search

About IBTrACS Database

This database is a web-friendly format of International Best Track Archive for Climate Stewardship (IBTrACS), a global best track data archive curated by NOAA dating back to 1842.

Updated: 2021-12-06